Time;durP1;ratioP1;P1;durP2;ratioP2;P2;SDS_P1;SDS_P2;PMS_P1;PMS_P2;Temp;Humidity;BMP_temperature;BMP_pressure;BME280_temperature;BME280_humidity;BME280_pressure;Samples;Min_cycle;Max_cycle;Signal;HPM_P1;HPM_P2
2022/08/23 00:00:36;;;;;;;9.15;5.45;;;18.60;99.90;;;;;;3058859;19;20006;-72
2022/08/23 00:01:43;;;;;;;9.43;5.72;;;18.60;99.90;;;;;;3058990;19;20042;-73
2022/08/23 00:02:44;;;;;;;10.98;5.82;;;18.60;99.90;;;;;;3058784;19;20007;-73
2022/08/23 00:03:48;;;;;;;10.13;5.90;;;18.40;99.90;;;;;;3058965;19;20086;-72
2022/08/23 00:04:52;;;;;;;9.52;5.55;;;18.50;99.90;;;;;;3058628;19;20488;-72
2022/08/23 00:05:54;;;;;;;8.85;5.90;;;18.50;99.90;;;;;;3058823;19;20010;-72
2022/08/23 00:06:58;;;;;;;8.52;6.20;;;18.50;99.90;;;;;;3058639;19;20007;-71
2022/08/23 00:07:59;;;;;;;11.52;6.80;;;18.50;99.90;;;;;;3058812;19;19998;-72
2022/08/23 00:09:03;;;;;;;9.65;5.90;;;18.70;99.90;;;;;;3058647;19;20006;-73
2022/08/23 00:10:06;;;;;;;9.40;6.35;;;18.70;99.90;;;;;;3058814;19;20009;-72
2022/08/23 00:11:28;;;;;;;11.50;6.60;;;18.60;99.90;;;;;;3058628;19;20013;-72
2022/08/23 00:12:33;;;;;;;11.38;6.38;;;18.50;99.90;;;;;;3059023;19;20337;-72
2022/08/23 00:13:34;;;;;;;10.27;6.85;;;18.40;99.90;;;;;;3058988;19;20014;-72
2022/08/23 00:14:41;;;;;;;10.45;6.05;;;18.50;99.90;;;;;;3057781;19;20453;-72
2022/08/23 00:15:42;;;;;;;9.55;6.20;;;18.40;99.90;;;;;;3058771;19;20042;-72
2022/08/23 00:16:46;;;;;;;9.30;6.30;;;18.50;99.90;;;;;;3057707;19;20044;-72
2022/08/23 00:17:48;;;;;;;11.35;6.28;;;18.50;99.90;;;;;;3057891;19;20010;-72
2022/08/23 00:18:52;;;;;;;11.15;6.53;;;18.40;99.90;;;;;;3058586;19;20010;-72
2022/08/23 00:19:53;;;;;;;10.40;6.47;;;18.50;99.90;;;;;;3058278;19;20036;-72
2022/08/23 00:20:57;;;;;;;10.73;6.93;;;18.50;99.90;;;;;;3058594;19;20162;-72
2022/08/23 00:21:58;;;;;;;10.40;6.43;;;18.50;99.90;;;;;;3058503;19;20358;-72
2022/08/23 00:23:02;;;;;;;9.35;6.20;;;18.40;99.90;;;;;;3058534;19;20018;-72
2022/08/23 00:24:05;;;;;;;12.30;7.13;;;18.30;99.90;;;;;;3058516;19;20039;-72
2022/08/23 00:25:13;;;;;;;10.27;6.85;;;18.50;99.90;;;;;;3058523;19;20480;-72
2022/08/23 00:26:14;;;;;;;8.00;6.18;;;18.30;99.90;;;;;;3058591;19;20006;-72
2022/08/23 00:27:21;;;;;;;12.25;7.00;;;18.40;99.90;;;;;;3058028;19;20504;-72
2022/08/23 00:28:22;;;;;;;10.82;5.97;;;18.50;99.90;;;;;;3058517;19;20013;-72
2022/08/23 00:29:29;;;;;;;10.02;6.90;;;18.10;99.90;;;;;;3058386;19;20491;-72
2022/08/23 00:30:33;;;;;;;13.00;6.80;;;18.30;99.90;;;;;;3058656;19;20002;-72
2022/08/23 00:31:34;;;;;;;10.10;6.93;;;18.40;99.90;;;;;;3058283;19;20011;-72
2022/08/23 00:32:40;;;;;;;11.80;6.30;;;18.30;99.90;;;;;;3058483;19;20036;-72
2022/08/23 00:33:41;;;;;;;11.57;6.85;;;18.30;99.90;;;;;;3058294;19;20006;-72
2022/08/23 00:34:45;;;;;;;11.73;6.55;;;18.50;99.90;;;;;;3058691;19;20029;-72
2022/08/23 00:35:46;;;;;;;8.52;6.22;;;18.20;99.90;;;;;;3058284;19;20021;-73
2022/08/23 00:36:50;;;;;;;11.63;6.70;;;18.30;99.90;;;;;;3059876;19;20011;-72
2022/08/23 00:37:56;;;;;;;9.63;6.47;;;18.30;99.90;;;;;;3057469;19;20011;-72
2022/08/23 00:38:57;;;;;;;10.43;7.03;;;17.50;99.90;;;;;;3058448;19;20096;-72
2022/08/23 00:40:01;;;;;;;9.38;6.45;;;18.20;99.90;;;;;;3058069;19;20015;-71
2022/08/23 00:41:03;;;;;;;11.65;6.38;;;18.20;99.90;;;;;;3058429;19;20013;-72
2022/08/23 00:47:43;;;;;;;11.27;6.53;;;18.30;99.90;;;;;;3058189;19;20002;-72
2022/08/23 00:48:45;;;;;;;11.98;7.10;;;18.50;99.90;;;;;;3058436;19;20014;-72
2022/08/23 00:49:55;;;;;;;14.05;7.53;;;18.20;99.90;;;;;;3057738;19;20043;-72
2022/08/23 00:51:04;;;;;;;12.73;7.50;;;18.30;99.90;;;;;;3058341;19;20512;-73
2022/08/23 00:52:14;;;;;;;13.23;7.85;;;18.30;99.90;;;;;;3058270;19;20006;-72
2022/08/23 00:53:19;;;;;;;13.55;7.45;;;18.30;99.90;;;;;;3058283;19;20011;-72
2022/08/23 00:54:26;;;;;;;11.23;7.72;;;18.20;99.90;;;;;;3058072;19;20010;-72
2022/08/23 00:55:28;;;;;;;15.68;7.70;;;18.50;99.90;;;;;;3058233;19;20031;-72
2022/08/23 00:56:38;;;;;;;13.65;7.75;;;18.30;99.90;;;;;;3058274;19;20078;-72
2022/08/23 00:57:39;;;;;;;11.98;7.50;;;18.50;99.90;;;;;;3057667;19;20006;-72
2022/08/23 00:58:46;;;;;;;11.50;7.35;;;18.40;99.90;;;;;;3058074;19;20023;-72
2022/08/23 00:59:47;;;;;;;11.75;7.53;;;18.30;99.90;;;;;;3058316;19;20013;-72
2022/08/23 01:00:53;;;;;;;11.38;7.45;;;18.30;99.90;;;;;;3058203;19;20014;-73
2022/08/23 01:01:55;;;;;;;12.27;7.50;;;18.40;99.90;;;;;;3058284;19;20006;-73
2022/08/23 01:02:59;;;;;;;13.02;7.97;;;18.20;99.90;;;;;;3057995;19;20035;-74
2022/08/23 01:04:00;;;;;;;12.52;7.20;;;18.30;99.90;;;;;;3058102;19;20374;-72
2022/08/23 01:05:06;;;;;;;10.00;7.05;;;18.30;99.90;;;;;;3057981;19;20480;-72
2022/08/23 01:06:12;;;;;;;12.07;7.97;;;18.20;99.90;;;;;;3058393;19;20002;-72
2022/08/23 01:07:24;;;;;;;11.52;7.18;;;18.40;99.90;;;;;;3057769;19;20393;-72
2022/08/23 01:08:28;;;;;;;16.20;7.70;;;18.20;99.90;;;;;;3058237;19;20003;-72
2022/08/23 01:09:32;;;;;;;13.20;7.47;;;18.20;99.90;;;;;;3058295;19;20517;-72
2022/08/23 01:10:38;;;;;;;8.90;6.63;;;18.20;99.90;;;;;;3057910;19;20123;-72
2022/08/23 01:11:47;;;;;;;10.27;7.60;;;18.20;99.90;;;;;;3058218;19;20002;-72
2022/08/23 01:12:57;;;;;;;11.82;7.93;;;18.20;99.90;;;;;;3058001;19;20021;-73
2022/08/23 01:14:10;;;;;;;13.95;7.80;;;18.30;99.90;;;;;;3057942;19;20006;-72
2022/08/23 01:15:22;;;;;;;14.45;8.00;;;18.20;99.90;;;;;;3057754;19;20077;-72
2022/08/23 01:16:27;;;;;;;10.45;7.07;;;18.20;99.90;;;;;;3057931;19;20010;-72
2022/08/23 01:17:40;;;;;;;14.95;7.63;;;18.10;99.90;;;;;;3056886;19;20481;-72
2022/08/23 01:18:42;;;;;;;12.07;7.55;;;18.20;99.90;;;;;;3058301;19;20009;-73
2022/08/23 01:19:51;;;;;;;13.23;7.90;;;18.70;99.90;;;;;;3057426;19;20007;-73
2022/08/23 01:20:58;;;;;;;12.95;7.47;;;18.10;99.90;;;;;;3058181;19;20015;-72
2022/08/23 01:22:09;;;;;;;12.70;7.30;;;18.10;99.90;;;;;;3058026;19;20090;-73
2022/08/23 01:23:36;;;;;;;14.95;7.78;;;18.10;99.90;;;;;;3057899;19;20010;-72
2022/08/23 01:24:40;;;;;;;17.65;8.25;;;18.10;99.90;;;;;;3058217;19;20069;-72
2022/08/23 01:25:42;;;;;;;11.00;7.45;;;18.20;99.90;;;;;;3057810;19;20010;-73
2022/08/23 01:26:46;;;;;;;11.70;7.90;;;17.90;99.90;;;;;;3058138;19;20410;-72
2022/08/23 01:27:48;;;;;;;13.77;8.10;;;18.00;99.90;;;;;;3056809;19;20563;-72
2022/08/23 01:28:53;;;;;;;13.35;8.27;;;18.10;99.90;;;;;;3057983;19;20011;-72
2022/08/23 01:29:54;;;;;;;12.63;8.05;;;18.00;99.90;;;;;;3057856;19;20021;-72
2022/08/23 01:30:58;;;;;;;10.70;7.57;;;18.20;99.90;;;;;;3057882;19;20722;-73
2022/08/23 01:32:00;;;;;;;12.65;7.85;;;18.10;99.90;;;;;;3057586;19;20103;-72
2022/08/23 01:33:09;;;;;;;12.35;8.13;;;17.70;99.90;;;;;;3057720;19;19999;-71
2022/08/23 01:34:12;;;;;;;11.98;7.25;;;18.10;99.90;;;;;;3057648;19;20129;-72
2022/08/23 01:35:17;;;;;;;12.52;7.75;;;18.10;99.90;;;;;;3057975;19;20010;-73
2022/08/23 01:36:18;;;;;;;10.05;8.10;;;18.00;99.90;;;;;;3058431;19;20028;-72
2022/08/23 01:37:22;;;;;;;;;;;18.00;99.90;;;;;;3057679;19;20019;-72
2022/08/23 01:38:28;;;;;;;10.63;8.05;;;18.10;99.90;;;;;;3056907;19;19919;-72
2022/08/23 01:39:31;;;;;;;12.82;8.15;;;17.90;99.90;;;;;;3058002;19;20019;-72
2022/08/23 01:40:33;;;;;;;10.65;7.80;;;18.00;99.90;;;;;;3057387;19;20014;-72
2022/08/23 01:41:38;;;;;;;11.80;8.02;;;18.00;99.90;;;;;;3057727;19;20010;-72
2022/08/23 01:42:40;;;;;;;12.50;8.27;;;18.00;99.90;;;;;;3057624;19;20073;-72
2022/08/23 01:43:45;;;;;;;15.18;8.80;;;17.90;99.90;;;;;;3058038;19;20002;-72
2022/08/23 01:44:46;;;;;;;12.20;8.15;;;18.00;99.90;;;;;;3057533;19;20018;-72
2022/08/23 01:45:51;;;;;;;13.90;8.45;;;17.80;99.90;;;;;;3057743;19;20021;-72
2022/08/23 01:46:53;;;;;;;13.00;8.02;;;17.90;99.90;;;;;;3057554;19;20039;-72
2022/08/23 01:47:57;;;;;;;13.05;8.35;;;17.90;99.90;;;;;;3057858;19;20003;-72
2022/08/23 01:48:58;;;;;;;13.05;8.30;;;18.00;99.90;;;;;;3057078;19;20014;-73
2022/08/23 01:50:02;;;;;;;13.25;8.95;;;18.10;99.90;;;;;;3057626;19;20007;-72
2022/08/23 01:51:04;;;;;;;14.90;8.25;;;18.00;99.90;;;;;;3057716;19;20355;-72
2022/08/23 01:52:08;;;;;;;12.55;8.77;;;17.90;99.90;;;;;;3057615;19;20098;-72
2022/08/23 01:53:12;;;;;;;15.20;9.02;;;17.90;99.90;;;;;;3056692;19;20402;-72
2022/08/23 01:54:16;;;;;;;11.25;7.95;;;18.00;99.90;;;;;;3056810;19;20007;-72
2022/08/23 01:55:21;;;;;;;13.73;8.38;;;17.90;99.90;;;;;;3058465;19;20010;-72
2022/08/23 01:56:24;;;;;;;12.77;8.57;;;18.00;99.90;;;;;;3060550;19;20031;-73
2022/08/23 01:57:28;;;;;;;11.52;8.32;;;17.90;99.90;;;;;;3060765;19;20084;-72
2022/08/23 01:58:31;;;;;;;17.73;8.65;;;17.90;99.90;;;;;;3060530;19;20329;-72
2022/08/23 01:59:35;;;;;;;13.02;8.40;;;18.00;99.90;;;;;;3060495;19;20020;-72
2022/08/23 02:00:38;;;;;;;12.48;9.18;;;17.90;99.90;;;;;;3060480;19;20011;-72
2022/08/23 02:01:42;;;;;;;14.05;9.05;;;18.00;99.90;;;;;;3060435;19;20089;-71
2022/08/23 02:02:45;;;;;;;13.60;8.80;;;17.80;99.90;;;;;;3060405;19;20018;-72
2022/08/23 02:03:49;;;;;;;14.30;9.40;;;17.70;99.90;;;;;;3060543;19;20397;-72
2022/08/23 02:04:51;;;;;;;13.50;8.40;;;17.70;99.90;;;;;;3060165;19;20035;-72
2022/08/23 02:05:54;;;;;;;;;;;17.90;99.90;;;;;;3060258;19;20082;-72
2022/08/23 02:06:56;;;;;;;13.60;8.38;;;17.70;99.90;;;;;;3059667;19;19918;-72
2022/08/23 02:08:59;;;;;;;11.95;8.50;;;17.90;99.90;;;;;;3060410;19;20007;-72
2022/08/23 02:09:24;;;;;;;13.32;8.45;;;17.80;99.90;;;;;;3060318;19;20015;-72
2022/08/23 02:10:28;;;;;;;14.30;9.02;;;17.70;99.90;;;;;;3060578;19;20011;-74
2022/08/23 02:11:32;;;;;;;12.73;8.68;;;17.70;99.90;;;;;;3060170;19;20021;-72
2022/08/23 02:12:37;;;;;;;12.13;8.80;;;17.70;99.90;;;;;;3060382;19;20010;-73
2022/08/23 02:13:38;;;;;;;15.88;9.50;;;17.60;99.90;;;;;;3060127;19;20014;-73
2022/08/23 02:14:42;;;;;;;11.55;8.88;;;17.80;99.90;;;;;;3059639;19;20022;-71
2022/08/23 02:15:45;;;;;;;14.48;9.48;;;17.70;99.90;;;;;;3060146;19;20086;-73
2022/08/23 02:16:51;;;;;;;16.50;9.23;;;17.80;99.90;;;;;;3060426;19;20026;-73
2022/08/23 02:17:53;;;;;;;15.60;9.07;;;17.80;99.90;;;;;;3059672;19;20031;-72
2022/08/23 02:18:57;;;;;;;;;;;17.80;99.90;;;;;;3061366;19;20018;-74
2022/08/23 02:20:00;;;;;;;16.20;9.00;;;17.80;99.90;;;;;;3060119;19;19919;-73
2022/08/23 02:21:05;;;;;;;15.75;9.25;;;17.70;99.90;;;;;;3060490;19;20032;-73
2022/08/23 02:22:07;;;;;;;14.00;9.57;;;17.90;99.90;;;;;;3060313;19;20448;-73
2022/08/23 02:23:11;;;;;;;10.98;8.30;;;17.70;99.90;;;;;;3060469;19;20015;-72
2022/08/23 02:24:15;;;;;;;14.45;9.48;;;17.70;99.90;;;;;;3060224;19;20014;-73
2022/08/23 02:25:21;;;;;;;12.43;9.40;;;17.70;99.90;;;;;;3060347;19;20034;-73
2022/08/23 02:26:23;;;;;;;12.43;9.18;;;17.70;99.90;;;;;;3060159;19;20035;-72
2022/08/23 02:27:27;;;;;;;13.32;9.55;;;17.60;99.90;;;;;;3059932;19;20015;-73
2022/08/23 02:28:28;;;;;;;15.68;9.73;;;17.70;99.90;;;;;;3062208;19;20471;-72
2022/08/23 02:29:34;;;;;;;15.43;9.35;;;17.70;99.90;;;;;;3062018;19;20002;-73
2022/08/23 02:30:35;;;;;;;14.60;9.32;;;17.70;99.90;;;;;;3061820;19;20014;-72
2022/08/23 02:31:39;;;;;;;14.73;9.73;;;17.60;99.90;;;;;;3062187;19;20005;-73
2022/08/23 02:32:41;;;;;;;13.85;9.10;;;17.80;99.90;;;;;;3060842;19;20035;-73
2022/08/23 02:33:44;;;;;;;;;;;17.70;99.90;;;;;;3062003;19;20014;-73
2022/08/23 02:34:46;;;;;;;14.73;9.10;;;17.70;99.90;;;;;;3061224;19;19926;-72
2022/08/23 02:35:50;;;;;;;;;;;17.70;99.90;;;;;;3062498;19;20093;-72
2022/08/23 02:36:51;;;;;;;12.85;8.82;;;17.60;99.90;;;;;;3060895;19;19938;-73
2022/08/23 02:37:55;;;;;;;13.68;8.52;;;17.60;99.90;;;;;;3060531;19;20002;-72
2022/08/23 02:38:58;;;;;;;10.75;8.05;;;17.50;99.90;;;;;;3060296;19;20015;-73
2022/08/23 02:40:02;;;;;;;12.45;8.90;;;17.40;99.90;;;;;;3060227;19;20406;-72
2022/08/23 02:41:06;;;;;;;12.30;8.68;;;17.60;99.90;;;;;;3060022;19;20099;-73
2022/08/23 02:42:10;;;;;;;14.63;8.80;;;17.50;99.90;;;;;;3060162;19;20015;-72
2022/08/23 02:43:11;;;;;;;14.73;9.07;;;17.50;99.90;;;;;;3060075;19;20031;-73
2022/08/23 02:44:16;;;;;;;12.77;8.63;;;17.60;99.90;;;;;;3060100;19;20014;-73
2022/08/23 02:45:17;;;;;;;13.18;8.63;;;17.50;99.90;;;;;;3059834;19;20011;-72
2022/08/23 02:46:22;;;;;;;10.57;8.25;;;17.60;99.90;;;;;;3059903;19;20066;-72
2022/08/23 02:47:23;;;;;;;12.80;8.48;;;17.40;99.90;;;;;;3059931;19;20023;-73
2022/08/23 02:48:27;;;;;;;10.18;8.85;;;17.60;99.90;;;;;;3059940;19;20007;-73
2022/08/23 02:49:29;;;;;;;11.70;8.02;;;17.30;99.90;;;;;;3059485;19;20018;-73
2022/08/23 02:50:33;;;;;;;11.70;7.50;;;17.50;99.90;;;;;;3059865;19;20021;-72
2022/08/23 02:51:34;;;;;;;13.30;7.47;;;17.50;99.90;;;;;;3059130;19;20409;-72
2022/08/23 02:52:38;;;;;;;11.13;7.60;;;17.50;99.90;;;;;;3059035;19;20369;-72
2022/08/23 02:53:40;;;;;;;9.70;7.32;;;17.60;99.90;;;;;;3060014;19;20034;-73
2022/08/23 02:54:44;;;;;;;10.30;7.13;;;17.50;99.90;;;;;;3059893;19;20010;-73
2022/08/23 02:55:46;;;;;;;11.82;7.80;;;17.60;99.90;;;;;;3059865;19;20018;-73
2022/08/23 02:56:53;;;;;;;13.93;8.25;;;17.40;99.90;;;;;;3059849;19;20010;-73
2022/08/23 02:57:54;;;;;;;9.68;8.10;;;17.50;99.90;;;;;;3059704;19;20472;-73
2022/08/23 02:58:58;;;;;;;11.60;8.63;;;17.50;99.90;;;;;;3059977;19;20006;-74
2022/08/23 02:59:59;;;;;;;12.80;8.65;;;17.40;99.90;;;;;;3059940;19;20002;-73
2022/08/23 03:01:04;;;;;;;12.32;8.85;;;17.40;99.90;;;;;;3059752;19;20002;-73
2022/08/23 03:02:05;;;;;;;13.90;8.43;;;17.20;99.90;;;;;;3059906;19;20006;-72
2022/08/23 03:03:09;;;;;;;14.18;9.25;;;17.40;99.90;;;;;;3059769;19;20035;-72
2022/08/23 03:04:10;;;;;;;12.55;9.27;;;17.40;99.90;;;;;;3059665;19;20010;-73
2022/08/23 03:05:16;;;;;;;13.23;8.85;;;17.30;99.90;;;;;;3059742;19;20017;-72
2022/08/23 03:06:17;;;;;;;12.70;8.93;;;17.30;99.90;;;;;;3059113;19;20027;-72
2022/08/23 03:07:21;;;;;;;10.68;8.23;;;17.40;99.90;;;;;;3057722;19;19999;-72
2022/08/23 03:08:23;;;;;;;13.30;8.93;;;17.20;99.90;;;;;;3059647;19;20007;-73
2022/08/23 03:09:27;;;;;;;13.35;9.15;;;17.30;99.90;;;;;;3059521;19;20023;-72
2022/08/23 03:10:28;;;;;;;12.88;8.85;;;17.40;99.90;;;;;;3059582;19;20015;-72
2022/08/23 03:11:32;;;;;;;12.00;9.07;;;17.20;99.90;;;;;;3059717;19;19999;-73
2022/08/23 03:12:37;;;;;;;15.38;9.57;;;17.30;99.90;;;;;;3059631;19;20002;-72
2022/08/23 03:13:42;;;;;;;13.98;9.48;;;17.20;99.90;;;;;;3059503;19;20036;-72
2022/08/23 03:14:43;;;;;;;11.63;9.10;;;17.30;99.90;;;;;;3058853;19;20022;-73
2022/08/23 03:15:47;;;;;;;13.25;9.02;;;17.30;99.90;;;;;;3059711;19;20010;-73
2022/08/23 03:16:48;;;;;;;13.43;8.52;;;17.30;99.90;;;;;;3059561;19;20018;-73
2022/08/23 03:17:52;;;;;;;13.43;8.30;;;17.20;99.90;;;;;;3059440;19;20010;-72
2022/08/23 03:18:53;;;;;;;10.15;8.20;;;17.40;99.90;;;;;;3058609;19;20018;-73
2022/08/23 03:19:57;;;;;;;11.30;8.57;;;17.30;99.90;;;;;;3059363;19;20014;-73
2022/08/23 03:20:58;;;;;;;12.07;8.88;;;17.40;99.90;;;;;;3059534;19;20021;-72
2022/08/23 03:22:02;;;;;;;10.55;8.55;;;17.30;99.90;;;;;;3059397;19;20063;-73
2022/08/23 03:23:04;;;;;;;10.98;8.85;;;17.00;99.90;;;;;;3059375;19;20010;-73
2022/08/23 03:24:08;;;;;;;11.07;8.88;;;17.30;99.90;;;;;;3059476;19;20365;-72
2022/08/23 03:25:09;;;;;;;12.23;8.52;;;17.10;99.90;;;;;;3059295;19;20410;-73
2022/08/23 03:26:15;;;;;;;11.50;9.32;;;17.10;99.90;;;;;;3059125;19;20519;-73
2022/08/23 03:27:16;;;;;;;12.63;9.00;;;17.30;99.90;;;;;;3058962;19;20003;-72
2022/08/23 03:28:22;;;;;;;10.02;8.57;;;17.00;99.90;;;;;;3059216;19;20073;-72
2022/08/23 03:29:24;;;;;;;11.60;8.82;;;17.00;99.90;;;;;;3059236;19;20010;-72
2022/08/23 03:30:28;;;;;;;12.70;9.75;;;16.90;99.90;;;;;;3059092;19;20018;-73
2022/08/23 03:31:29;;;;;;;11.98;9.60;;;17.10;99.90;;;;;;3059259;19;20015;-73
2022/08/23 03:32:33;;;;;;;13.35;10.00;;;17.80;99.90;;;;;;3059141;19;20096;-72
2022/08/23 03:33:35;;;;;;;12.05;9.57;;;17.00;99.90;;;;;;3059219;19;20014;-72
2022/08/23 03:34:38;;;;;;;;;;;17.00;99.90;;;;;;3059741;19;20374;-73
2022/08/23 03:35:39;;;;;;;13.32;9.77;;;17.00;99.90;;;;;;3060049;19;19918;-73
2022/08/23 03:36:43;;;;;;;17.70;10.70;;;16.90;99.90;;;;;;3059069;19;20018;-73
2022/08/23 03:37:44;;;;;;;15.45;10.10;;;16.90;99.90;;;;;;3059229;19;20019;-72
2022/08/23 03:38:48;;;;;;;13.63;10.73;;;17.20;99.90;;;;;;3058521;19;20003;-73
2022/08/23 03:39:51;;;;;;;14.57;11.15;;;16.80;99.90;;;;;;3059009;19;20022;-73
2022/08/23 03:40:55;;;;;;;13.35;10.13;;;16.80;99.90;;;;;;3058959;19;20022;-73
2022/08/23 03:41:56;;;;;;;14.57;10.82;;;17.00;99.90;;;;;;3059161;19;20014;-73
2022/08/23 03:43:00;;;;;;;16.00;10.75;;;17.00;99.90;;;;;;3058929;19;20018;-73
2022/08/23 03:44:04;;;;;;;16.25;10.68;;;16.90;99.90;;;;;;3058949;19;20354;-73
2022/08/23 03:45:09;;;;;;;13.38;10.45;;;17.00;99.90;;;;;;3058871;19;20082;-73
2022/08/23 03:46:21;;;;;;;15.30;10.50;;;16.90;99.90;;;;;;3058976;19;20580;-73
2022/08/23 03:47:25;;;;;;;;;;;17.00;99.90;;;;;;3059663;19;20018;-73
2022/08/23 03:48:26;;;;;;;15.35;10.98;;;16.90;99.90;;;;;;3059027;19;19919;-73
2022/08/23 03:49:30;;;;;;;16.20;11.38;;;17.00;99.90;;;;;;3058532;19;20018;-73
2022/08/23 03:50:31;;;;;;;17.83;11.25;;;17.10;99.90;;;;;;3058953;19;20401;-73
2022/08/23 03:51:36;;;;;;;13.98;11.07;;;17.00;99.90;;;;;;3058914;19;20018;-73
2022/08/23 03:52:38;;;;;;;18.33;11.80;;;16.90;99.90;;;;;;3059158;19;20392;-73
2022/08/23 03:53:42;;;;;;;14.32;11.52;;;17.00;99.90;;;;;;3058716;19;20046;-73
2022/08/23 03:54:43;;;;;;;15.60;11.43;;;16.90;99.90;;;;;;3058987;19;20003;-73
2022/08/23 03:55:48;;;;;;;18.65;11.88;;;16.80;99.90;;;;;;3058656;19;20022;-72
2022/08/23 03:56:51;;;;;;;19.83;12.48;;;16.70;99.90;;;;;;3059082;19;20346;-73
2022/08/23 03:57:55;;;;;;;16.52;12.02;;;16.90;99.90;;;;;;3058828;19;20092;-72
2022/08/23 03:59:04;;;;;;;17.38;11.93;;;16.90;99.90;;;;;;3058286;19;20007;-73
2022/08/23 04:00:10;;;;;;;15.60;11.68;;;16.90;99.90;;;;;;3058713;19;20389;-73
2022/08/23 04:01:11;;;;;;;19.00;12.00;;;17.00;99.90;;;;;;3059021;19;20014;-72
2022/08/23 04:02:16;;;;;;;17.00;12.38;;;16.90;99.90;;;;;;3058690;19;20006;-73
2022/08/23 04:03:17;;;;;;;15.85;12.15;;;16.90;99.90;;;;;;3057889;19;20018;-72
2022/08/23 04:04:21;;;;;;;17.77;12.10;;;16.80;99.90;;;;;;3057900;19;20043;-72
2022/08/23 04:05:22;;;;;;;15.15;11.80;;;16.90;99.90;;;;;;3059078;19;20021;-73
2022/08/23 04:06:26;;;;;;;16.70;12.23;;;17.00;99.90;;;;;;3058670;19;20014;-73
2022/08/23 04:07:27;;;;;;;16.58;11.90;;;16.90;99.90;;;;;;3058772;19;20002;-73
2022/08/23 04:08:31;;;;;;;17.45;11.73;;;16.90;99.90;;;;;;3058590;19;20010;-73
2022/08/23 04:09:33;;;;;;;20.42;13.38;;;16.80;99.90;;;;;;3058801;19;20018;-73
2022/08/23 04:10:37;;;;;;;15.55;12.68;;;17.00;99.90;;;;;;3058648;19;20039;-72
2022/08/23 04:11:39;;;;;;;15.10;12.23;;;16.90;99.90;;;;;;3058972;19;20007;-73
2022/08/23 04:12:44;;;;;;;17.88;12.77;;;16.70;99.90;;;;;;3058549;19;20579;-73
2022/08/23 04:13:46;;;;;;;18.80;12.85;;;16.90;99.90;;;;;;3058776;19;20497;-73
2022/08/23 04:14:52;;;;;;;17.65;13.07;;;16.90;99.90;;;;;;3057956;19;20028;-73
2022/08/23 04:15:54;;;;;;;18.75;12.73;;;16.80;99.90;;;;;;3058588;19;20021;-73
2022/08/23 04:16:58;;;;;;;17.20;12.60;;;16.90;99.90;;;;;;3058594;19;20419;-72
2022/08/23 04:17:59;;;;;;;15.85;12.73;;;16.90;99.90;;;;;;3058019;19;20010;-73
2022/08/23 04:19:03;;;;;;;18.10;12.95;;;16.80;99.90;;;;;;3057871;19;20078;-72
2022/08/23 04:20:05;;;;;;;20.63;12.80;;;16.80;99.90;;;;;;3058689;19;20023;-72
2022/08/23 04:21:12;;;;;;;14.60;12.48;;;16.70;99.90;;;;;;3058415;19;20027;-72
2022/08/23 04:22:16;;;;;;;17.92;12.90;;;17.20;99.90;;;;;;3058832;19;20024;-73
2022/08/23 04:23:20;;;;;;;17.80;12.73;;;17.00;99.90;;;;;;3058412;19;20018;-73
2022/08/23 04:24:24;;;;;;;17.42;12.68;;;16.60;99.90;;;;;;3058388;19;20035;-73
2022/08/23 04:25:26;;;;;;;18.42;12.85;;;16.70;99.90;;;;;;3058632;19;20006;-73
2022/08/23 04:26:30;;;;;;;18.00;12.52;;;16.60;99.90;;;;;;3058683;19;20044;-73
2022/08/23 04:27:31;;;;;;;14.90;12.10;;;16.80;99.90;;;;;;3057876;19;20011;-73
2022/08/23 04:28:35;;;;;;;16.70;13.02;;;16.90;99.90;;;;;;3058490;19;20070;-73
2022/08/23 04:29:38;;;;;;;17.30;12.63;;;16.70;99.90;;;;;;3058717;19;20006;-72
2022/08/23 04:30:45;;;;;;;18.75;13.00;;;16.70;99.90;;;;;;3058318;19;20046;-73
2022/08/23 04:31:47;;;;;;;16.30;13.88;;;16.50;99.90;;;;;;3058620;19;20007;-72
2022/08/23 04:32:51;;;;;;;16.48;12.77;;;16.60;99.90;;;;;;3058619;19;20032;-72
2022/08/23 04:33:52;;;;;;;19.40;13.45;;;16.70;99.90;;;;;;3058598;19;20002;-73
2022/08/23 04:34:56;;;;;;;17.67;12.63;;;16.60;99.90;;;;;;3058278;19;20011;-73
2022/08/23 04:36:01;;;;;;;16.85;13.07;;;16.80;99.90;;;;;;3058603;19;20007;-72
2022/08/23 04:37:05;;;;;;;16.15;12.90;;;16.50;99.90;;;;;;3058561;19;20007;-72
2022/08/23 04:38:06;;;;;;;15.48;12.65;;;16.60;99.90;;;;;;3058647;19;20010;-73
2022/08/23 04:39:11;;;;;;;17.85;13.13;;;16.60;99.90;;;;;;3057763;19;20010;-73
2022/08/23 04:42:46;;;;;;;15.55;12.68;;;16.70;99.90;;;;;;3058344;19;20077;-72
2022/08/23 04:43:49;;;;;;;17.52;12.70;;;16.80;99.90;;;;;;3058125;19;20504;-73
2022/08/23 04:44:51;;;;;;;17.25;12.95;;;16.70;99.90;;;;;;3058276;19;20468;-72
2022/08/23 04:45:58;;;;;;;18.40;13.02;;;16.70;99.90;;;;;;3057326;19;20014;-73
2022/08/23 04:46:59;;;;;;;17.73;12.80;;;16.80;99.90;;;;;;3057729;19;20018;-73
2022/08/23 04:48:03;;;;;;;16.70;13.00;;;16.60;99.90;;;;;;3058085;19;20011;-72
2022/08/23 04:49:04;;;;;;;16.73;12.75;;;16.70;99.90;;;;;;3057853;19;20006;-73
2022/08/23 04:50:09;;;;;;;17.02;12.77;;;16.70;99.90;;;;;;3058110;19;20010;-72
2022/08/23 04:51:11;;;;;;;19.42;12.88;;;16.70;99.90;;;;;;3058422;19;20002;-73
2022/08/23 04:52:15;;;;;;;;;;;16.70;99.90;;;;;;3058589;19;20488;-73
2022/08/23 04:53:17;;;;;;;16.50;12.45;;;16.60;99.90;;;;;;3058266;19;19938;-72
2022/08/23 04:54:22;;;;;;;17.52;12.98;;;16.50;99.90;;;;;;3058180;19;20014;-73
2022/08/23 04:55:23;;;;;;;16.65;12.65;;;16.50;99.90;;;;;;3058194;19;20358;-72
2022/08/23 04:56:27;;;;;;;20.35;13.45;;;16.60;99.90;;;;;;3058062;19;20017;-72
2022/08/23 04:57:28;;;;;;;16.65;13.45;;;16.60;99.90;;;;;;3058557;19;20011;-73
2022/08/23 04:58:33;;;;;;;16.80;12.27;;;16.70;99.90;;;;;;3058232;19;20011;-73
2022/08/23 04:59:35;;;;;;;15.82;12.20;;;16.60;99.90;;;;;;3057406;19;20497;-73
2022/08/23 05:00:39;;;;;;;16.95;12.93;;;16.70;99.90;;;;;;3057975;19;20031;-73
2022/08/23 05:01:43;;;;;;;17.58;12.98;;;16.80;99.90;;;;;;3058024;19;20002;-72
2022/08/23 05:02:46;;;;;;;18.20;13.00;;;16.80;99.90;;;;;;3057902;19;20357;-72
2022/08/23 05:03:48;;;;;;;15.98;13.45;;;16.70;99.90;;;;;;3057915;19;20322;-73
2022/08/23 05:04:52;;;;;;;15.70;12.60;;;16.80;99.90;;;;;;3057939;19;20015;-72
2022/08/23 05:05:53;;;;;;;21.15;14.05;;;16.60;99.90;;;;;;3057950;19;20002;-72
2022/08/23 05:06:57;;;;;;;17.67;13.02;;;16.90;99.90;;;;;;3057893;19;20074;-73
2022/08/23 05:07:58;;;;;;;17.00;12.80;;;16.60;99.90;;;;;;3057970;19;20409;-73
2022/08/23 05:09:02;;;;;;;18.30;12.77;;;16.60;99.90;;;;;;3058200;19;20086;-73
2022/08/23 05:10:04;;;;;;;16.40;13.20;;;16.60;99.90;;;;;;3058038;19;20020;-73
2022/08/23 05:11:10;;;;;;;17.77;13.50;;;16.60;99.90;;;;;;3058141;19;20338;-73
2022/08/23 05:12:11;;;;;;;16.27;13.35;;;16.70;99.90;;;;;;3058255;19;20006;-73
2022/08/23 05:13:15;;;;;;;19.90;13.60;;;16.80;99.90;;;;;;3058009;19;20014;-72
2022/08/23 05:14:16;;;;;;;14.95;12.98;;;16.60;99.90;;;;;;3057606;19;20011;-73
2022/08/23 05:15:20;;;;;;;19.27;13.32;;;16.80;99.90;;;;;;3057856;19;20011;-73
2022/08/23 05:16:22;;;;;;;20.25;13.48;;;16.70;99.90;;;;;;3057896;19;20015;-72
2022/08/23 05:17:29;;;;;;;17.48;12.45;;;16.70;99.90;;;;;;3057975;19;20035;-73
2022/08/23 05:18:31;;;;;;;16.63;13.82;;;16.60;99.90;;;;;;3057832;19;20513;-73
2022/08/23 05:19:34;;;;;;;16.55;12.68;;;16.90;99.90;;;;;;3056789;19;19999;-73
2022/08/23 05:20:36;;;;;;;22.00;12.60;;;16.70;99.90;;;;;;3057772;19;20006;-73
2022/08/23 05:21:40;;;;;;;15.68;13.00;;;16.80;99.90;;;;;;3057970;19;20032;-73
2022/08/23 05:22:41;;;;;;;15.65;12.50;;;16.90;99.90;;;;;;3057814;19;20389;-73
2022/08/23 05:23:46;;;;;;;17.20;12.75;;;16.80;99.90;;;;;;3058079;19;20003;-72
2022/08/23 05:24:47;;;;;;;15.38;12.82;;;16.80;99.90;;;;;;3057683;19;20014;-72
2022/08/23 05:25:51;;;;;;;14.38;12.40;;;16.90;99.90;;;;;;3057903;19;19998;-73
2022/08/23 05:26:55;;;;;;;15.30;13.13;;;16.70;99.90;;;;;;3057507;19;20006;-73
2022/08/23 05:27:56;;;;;;;16.40;12.60;;;16.90;99.90;;;;;;3057716;19;20025;-73
2022/08/23 05:29:00;;;;;;;16.48;12.50;;;16.80;99.90;;;;;;3057712;19;20388;-73
2022/08/23 05:30:01;;;;;;;22.65;13.70;;;16.80;99.90;;;;;;3057715;19;20017;-72
2022/08/23 05:31:09;;;;;;;16.55;12.07;;;17.00;99.90;;;;;;3059878;19;20509;-72
2022/08/23 05:32:10;;;;;;;14.45;12.20;;;16.70;99.90;;;;;;3060070;19;20104;-72
2022/08/23 05:33:17;;;;;;;16.42;12.68;;;16.80;99.90;;;;;;3061006;19;20035;-73
2022/08/23 05:34:21;;;;;;;16.33;12.05;;;16.90;99.90;;;;;;3060763;19;20393;-72
2022/08/23 05:35:22;;;;;;;14.60;12.25;;;16.90;99.90;;;;;;3062178;19;20014;-72